sensor_id;sensor_type;location;lat;lon;timestamp;P1;durP1;ratioP1;P2;durP2;ratioP2
23716;SDS011;22094;52.130;5.598;2022-09-17T00:00:57;17.33;;;2.30;;
23716;SDS011;22094;52.130;5.598;2022-09-17T00:03:23;17.13;;;3.08;;
23716;SDS011;22094;52.130;5.598;2022-09-17T00:05:49;19.50;;;3.28;;
23716;SDS011;22094;52.130;5.598;2022-09-17T00:08:22;10.30;;;2.00;;
23716;SDS011;22094;52.130;5.598;2022-09-17T00:10:47;15.60;;;2.65;;
23716;SDS011;22094;52.130;5.598;2022-09-17T00:13:13;16.95;;;3.03;;
23716;SDS011;22094;52.130;5.598;2022-09-17T00:15:39;17.50;;;2.92;;
23716;SDS011;22094;52.130;5.598;2022-09-17T00:18:07;18.48;;;3.00;;
23716;SDS011;22094;52.130;5.598;2022-09-17T00:20:37;13.63;;;2.92;;
23716;SDS011;22094;52.130;5.598;2022-09-17T00:23:07;14.52;;;2.58;;
23716;SDS011;22094;52.130;5.598;2022-09-17T00:25:33;15.02;;;2.28;;
23716;SDS011;22094;52.130;5.598;2022-09-17T00:28:02;14.48;;;2.53;;
23716;SDS011;22094;52.130;5.598;2022-09-17T00:30:27;17.40;;;2.97;;
23716;SDS011;22094;52.130;5.598;2022-09-17T00:32:53;17.73;;;2.28;;
23716;SDS011;22094;52.130;5.598;2022-09-17T00:35:22;16.48;;;2.47;;
23716;SDS011;22094;52.130;5.598;2022-09-17T00:37:48;15.95;;;2.50;;
23716;SDS011;22094;52.130;5.598;2022-09-17T00:40:13;18.35;;;3.00;;
23716;SDS011;22094;52.130;5.598;2022-09-17T00:42:39;16.90;;;2.72;;
23716;SDS011;22094;52.130;5.598;2022-09-17T00:45:05;12.70;;;2.40;;
23716;SDS011;22094;52.130;5.598;2022-09-17T00:47:35;17.13;;;3.00;;
23716;SDS011;22094;52.130;5.598;2022-09-17T00:50:13;16.27;;;2.53;;
23716;SDS011;22094;52.130;5.598;2022-09-17T00:52:45;21.13;;;2.88;;
23716;SDS011;22094;52.130;5.598;2022-09-17T00:57:41;15.40;;;2.42;;
23716;SDS011;22094;52.130;5.598;2022-09-17T01:00:10;17.00;;;2.33;;
23716;SDS011;22094;52.130;5.598;2022-09-17T01:02:37;14.77;;;2.53;;
23716;SDS011;22094;52.130;5.598;2022-09-17T01:05:03;16.10;;;2.67;;
23716;SDS011;22094;52.130;5.598;2022-09-17T01:24:44;18.17;;;2.10;;
23716;SDS011;22094;52.130;5.598;2022-09-17T01:27:37;14.35;;;2.15;;
23716;SDS011;22094;52.130;5.598;2022-09-17T01:30:13;9.82;;;1.63;;
23716;SDS011;22094;52.130;5.598;2022-09-17T01:32:57;11.48;;;2.30;;
23716;SDS011;22094;52.130;5.598;2022-09-17T01:35:46;10.95;;;2.35;;
23716;SDS011;22094;52.130;5.598;2022-09-17T01:41:10;10.68;;;1.58;;
23716;SDS011;22094;52.130;5.598;2022-09-17T01:43:57;14.70;;;1.60;;
23716;SDS011;22094;52.130;5.598;2022-09-17T01:46:49;10.55;;;1.52;;
23716;SDS011;22094;52.130;5.598;2022-09-17T01:49:19;9.82;;;1.58;;
23716;SDS011;22094;52.130;5.598;2022-09-17T01:51:47;7.82;;;1.73;;
23716;SDS011;22094;52.130;5.598;2022-09-17T01:54:19;11.23;;;1.52;;
23716;SDS011;22094;52.130;5.598;2022-09-17T01:56:57;8.30;;;1.42;;
23716;SDS011;22094;52.130;5.598;2022-09-17T01:59:28;7.95;;;1.58;;
23716;SDS011;22094;52.130;5.598;2022-09-17T02:02:04;9.40;;;1.40;;
23716;SDS011;22094;52.130;5.598;2022-09-17T02:04:35;4.65;;;1.08;;
23716;SDS011;22094;52.130;5.598;2022-09-17T02:07:08;9.23;;;1.45;;
23716;SDS011;22094;52.130;5.598;2022-09-17T02:09:41;8.57;;;1.52;;
23716;SDS011;22094;52.130;5.598;2022-09-17T02:12:11;7.85;;;1.75;;
23716;SDS011;22094;52.130;5.598;2022-09-17T02:14:46;12.73;;;1.75;;
23716;SDS011;22094;52.130;5.598;2022-09-17T02:17:26;10.30;;;1.55;;
23716;SDS011;22094;52.130;5.598;2022-09-17T02:20:09;7.78;;;1.52;;
23716;SDS011;22094;52.130;5.598;2022-09-17T02:22:46;12.65;;;1.88;;
23716;SDS011;22094;52.130;5.598;2022-09-17T02:25:23;14.52;;;1.70;;
23716;SDS011;22094;52.130;5.598;2022-09-17T02:28:00;8.60;;;1.52;;
23716;SDS011;22094;52.130;5.598;2022-09-17T02:30:34;11.38;;;1.55;;
23716;SDS011;22094;52.130;5.598;2022-09-17T02:33:01;7.57;;;1.63;;
23716;SDS011;22094;52.130;5.598;2022-09-17T02:35:31;9.40;;;1.67;;
23716;SDS011;22094;52.130;5.598;2022-09-17T02:37:57;14.10;;;1.92;;
23716;SDS011;22094;52.130;5.598;2022-09-17T02:40:24;12.50;;;1.63;;
23716;SDS011;22094;52.130;5.598;2022-09-17T02:48:42;6.90;;;1.58;;
23716;SDS011;22094;52.130;5.598;2022-09-17T03:04:31;8.05;;;1.48;;
23716;SDS011;22094;52.130;5.598;2022-09-17T03:06:58;10.13;;;1.50;;
23716;SDS011;22094;52.130;5.598;2022-09-17T03:09:29;11.70;;;1.60;;
23716;SDS011;22094;52.130;5.598;2022-09-17T03:11:54;12.65;;;1.65;;
23716;SDS011;22094;52.130;5.598;2022-09-17T03:14:20;8.45;;;1.40;;
23716;SDS011;22094;52.130;5.598;2022-09-17T03:16:46;7.75;;;1.40;;
23716;SDS011;22094;52.130;5.598;2022-09-17T03:19:12;10.23;;;2.05;;
23716;SDS011;22094;52.130;5.598;2022-09-17T03:21:37;12.60;;;1.60;;
23716;SDS011;22094;52.130;5.598;2022-09-17T03:24:03;11.48;;;1.80;;
23716;SDS011;22094;52.130;5.598;2022-09-17T03:26:28;11.80;;;1.25;;
23716;SDS011;22094;52.130;5.598;2022-09-17T03:28:54;13.27;;;1.30;;
23716;SDS011;22094;52.130;5.598;2022-09-17T03:31:20;9.43;;;1.25;;
23716;SDS011;22094;52.130;5.598;2022-09-17T03:33:45;10.02;;;1.45;;
23716;SDS011;22094;52.130;5.598;2022-09-17T03:36:11;16.42;;;2.00;;
23716;SDS011;22094;52.130;5.598;2022-09-17T03:38:36;8.30;;;1.33;;
23716;SDS011;22094;52.130;5.598;2022-09-17T03:41:04;10.38;;;1.73;;
23716;SDS011;22094;52.130;5.598;2022-09-17T03:43:31;6.82;;;1.65;;
23716;SDS011;22094;52.130;5.598;2022-09-17T03:45:57;12.10;;;1.60;;
23716;SDS011;22094;52.130;5.598;2022-09-17T03:48:24;10.93;;;1.52;;
23716;SDS011;22094;52.130;5.598;2022-09-17T03:50:50;12.43;;;1.70;;
23716;SDS011;22094;52.130;5.598;2022-09-17T03:53:16;14.70;;;3.03;;
23716;SDS011;22094;52.130;5.598;2022-09-17T03:55:41;9.88;;;1.70;;
23716;SDS011;22094;52.130;5.598;2022-09-17T03:58:07;9.63;;;1.70;;
23716;SDS011;22094;52.130;5.598;2022-09-17T04:00:33;18.13;;;2.10;;
23716;SDS011;22094;52.130;5.598;2022-09-17T04:03:02;12.35;;;2.10;;
23716;SDS011;22094;52.130;5.598;2022-09-17T04:05:28;11.90;;;2.10;;
23716;SDS011;22094;52.130;5.598;2022-09-17T04:07:54;14.70;;;2.13;;
23716;SDS011;22094;52.130;5.598;2022-09-17T04:10:19;9.60;;;1.67;;
23716;SDS011;22094;52.130;5.598;2022-09-17T04:12:45;13.38;;;1.90;;
23716;SDS011;22094;52.130;5.598;2022-09-17T04:15:10;12.63;;;1.98;;
23716;SDS011;22094;52.130;5.598;2022-09-17T04:17:36;10.60;;;1.88;;
23716;SDS011;22094;52.130;5.598;2022-09-17T04:20:02;15.20;;;1.95;;
23716;SDS011;22094;52.130;5.598;2022-09-17T04:22:29;9.35;;;1.73;;
23716;SDS011;22094;52.130;5.598;2022-09-17T04:24:54;14.55;;;1.73;;
23716;SDS011;22094;52.130;5.598;2022-09-17T04:27:20;19.88;;;2.25;;
23716;SDS011;22094;52.130;5.598;2022-09-17T04:29:45;14.30;;;1.83;;
23716;SDS011;22094;52.130;5.598;2022-09-17T04:32:11;15.75;;;2.10;;
23716;SDS011;22094;52.130;5.598;2022-09-17T04:34:36;11.35;;;1.67;;
23716;SDS011;22094;52.130;5.598;2022-09-17T04:37:02;15.10;;;2.13;;
23716;SDS011;22094;52.130;5.598;2022-09-17T04:39:27;12.60;;;2.50;;
23716;SDS011;22094;52.130;5.598;2022-09-17T04:41:53;15.20;;;1.90;;
23716;SDS011;22094;52.130;5.598;2022-09-17T04:44:19;12.82;;;1.75;;
23716;SDS011;22094;52.130;5.598;2022-09-17T04:46:44;12.77;;;1.98;;
23716;SDS011;22094;52.130;5.598;2022-09-17T04:49:10;12.45;;;2.47;;
23716;SDS011;22094;52.130;5.598;2022-09-17T04:51:37;9.40;;;2.00;;
23716;SDS011;22094;52.130;5.598;2022-09-17T04:54:02;15.10;;;1.75;;
23716;SDS011;22094;52.130;5.598;2022-09-17T04:56:28;15.52;;;1.88;;
23716;SDS011;22094;52.130;5.598;2022-09-17T04:58:53;9.07;;;1.35;;
23716;SDS011;22094;52.130;5.598;2022-09-17T05:01:20;11.68;;;1.55;;
23716;SDS011;22094;52.130;5.598;2022-09-17T05:03:45;12.30;;;1.90;;
23716;SDS011;22094;52.130;5.598;2022-09-17T05:06:11;11.70;;;1.70;;
23716;SDS011;22094;52.130;5.598;2022-09-17T05:08:37;8.73;;;1.05;;
23716;SDS011;22094;52.130;5.598;2022-09-17T05:11:02;10.82;;;1.83;;
23716;SDS011;22094;52.130;5.598;2022-09-17T05:13:28;10.93;;;1.65;;
23716;SDS011;22094;52.130;5.598;2022-09-17T05:15:54;12.10;;;1.52;;
23716;SDS011;22094;52.130;5.598;2022-09-17T05:18:22;11.43;;;1.50;;
23716;SDS011;22094;52.130;5.598;2022-09-17T05:20:48;10.25;;;1.40;;
23716;SDS011;22094;52.130;5.598;2022-09-17T05:23:14;8.95;;;1.75;;
23716;SDS011;22094;52.130;5.598;2022-09-17T05:25:40;13.25;;;1.48;;
23716;SDS011;22094;52.130;5.598;2022-09-17T05:28:05;9.35;;;1.65;;
23716;SDS011;22094;52.130;5.598;2022-09-17T05:30:31;13.13;;;1.77;;
23716;SDS011;22094;52.130;5.598;2022-09-17T05:32:59;9.48;;;1.60;;
23716;SDS011;22094;52.130;5.598;2022-09-17T05:35:32;17.52;;;1.80;;
23716;SDS011;22094;52.130;5.598;2022-09-17T05:38:01;6.38;;;1.92;;
23716;SDS011;22094;52.130;5.598;2022-09-17T05:40:28;8.88;;;1.42;;
23716;SDS011;22094;52.130;5.598;2022-09-17T05:42:57;12.55;;;2.03;;
23716;SDS011;22094;52.130;5.598;2022-09-17T05:45:23;9.20;;;1.45;;
23716;SDS011;22094;52.130;5.598;2022-09-17T05:47:55;12.00;;;1.80;;
23716;SDS011;22094;52.130;5.598;2022-09-17T05:50:23;11.02;;;1.60;;
23716;SDS011;22094;52.130;5.598;2022-09-17T05:52:50;13.02;;;1.55;;
23716;SDS011;22094;52.130;5.598;2022-09-17T05:55:19;6.38;;;1.60;;
23716;SDS011;22094;52.130;5.598;2022-09-17T05:57:47;11.55;;;2.05;;
23716;SDS011;22094;52.130;5.598;2022-09-17T06:00:20;6.25;;;1.70;;
23716;SDS011;22094;52.130;5.598;2022-09-17T06:02:46;10.10;;;1.60;;
23716;SDS011;22094;52.130;5.598;2022-09-17T06:05:17;12.40;;;2.22;;
23716;SDS011;22094;52.130;5.598;2022-09-17T06:07:43;8.02;;;1.63;;
23716;SDS011;22094;52.130;5.598;2022-09-17T06:10:08;10.23;;;1.83;;
23716;SDS011;22094;52.130;5.598;2022-09-17T06:12:34;7.35;;;1.40;;
23716;SDS011;22094;52.130;5.598;2022-09-17T06:14:59;9.95;;;1.48;;
23716;SDS011;22094;52.130;5.598;2022-09-17T06:17:25;10.95;;;1.85;;
23716;SDS011;22094;52.130;5.598;2022-09-17T06:19:51;11.30;;;1.70;;
23716;SDS011;22094;52.130;5.598;2022-09-17T06:22:17;6.30;;;1.55;;
23716;SDS011;22094;52.130;5.598;2022-09-17T06:24:43;10.80;;;2.00;;
23716;SDS011;22094;52.130;5.598;2022-09-17T06:27:09;9.30;;;2.00;;
23716;SDS011;22094;52.130;5.598;2022-09-17T06:29:35;10.50;;;2.30;;
23716;SDS011;22094;52.130;5.598;2022-09-17T06:32:00;10.23;;;1.75;;
23716;SDS011;22094;52.130;5.598;2022-09-17T06:34:26;8.23;;;1.67;;
23716;SDS011;22094;52.130;5.598;2022-09-17T06:36:52;11.20;;;1.95;;
23716;SDS011;22094;52.130;5.598;2022-09-17T06:39:17;5.10;;;1.50;;
23716;SDS011;22094;52.130;5.598;2022-09-17T06:41:43;8.23;;;1.40;;
23716;SDS011;22094;52.130;5.598;2022-09-17T06:44:10;6.25;;;1.50;;
23716;SDS011;22094;52.130;5.598;2022-09-17T06:46:35;9.88;;;1.70;;
23716;SDS011;22094;52.130;5.598;2022-09-17T06:49:01;7.35;;;1.48;;
23716;SDS011;22094;52.130;5.598;2022-09-17T06:51:26;7.72;;;1.50;;
23716;SDS011;22094;52.130;5.598;2022-09-17T06:53:52;6.43;;;1.33;;
23716;SDS011;22094;52.130;5.598;2022-09-17T06:56:17;6.65;;;1.40;;
23716;SDS011;22094;52.130;5.598;2022-09-17T06:58:43;7.47;;;2.03;;
23716;SDS011;22094;52.130;5.598;2022-09-17T07:01:09;6.35;;;2.03;;
23716;SDS011;22094;52.130;5.598;2022-09-17T07:03:36;6.97;;;1.80;;
23716;SDS011;22094;52.130;5.598;2022-09-17T07:06:02;10.68;;;2.20;;
23716;SDS011;22094;52.130;5.598;2022-09-17T07:08:28;7.68;;;1.40;;
23716;SDS011;22094;52.130;5.598;2022-09-17T07:10:58;6.22;;;1.58;;
23716;SDS011;22094;52.130;5.598;2022-09-17T07:13:24;6.65;;;1.67;;
23716;SDS011;22094;52.130;5.598;2022-09-17T07:15:53;5.43;;;1.45;;
23716;SDS011;22094;52.130;5.598;2022-09-17T07:18:20;8.50;;;1.40;;
23716;SDS011;22094;52.130;5.598;2022-09-17T07:20:51;9.07;;;1.80;;
23716;SDS011;22094;52.130;5.598;2022-09-17T07:23:24;6.13;;;1.50;;
23716;SDS011;22094;52.130;5.598;2022-09-17T07:25:55;5.72;;;1.10;;
23716;SDS011;22094;52.130;5.598;2022-09-17T07:28:22;6.25;;;1.40;;
23716;SDS011;22094;52.130;5.598;2022-09-17T07:30:49;7.80;;;1.60;;
23716;SDS011;22094;52.130;5.598;2022-09-17T07:33:15;8.57;;;1.73;;
23716;SDS011;22094;52.130;5.598;2022-09-17T07:35:50;5.68;;;1.58;;
23716;SDS011;22094;52.130;5.598;2022-09-17T07:38:17;7.47;;;1.67;;
23716;SDS011;22094;52.130;5.598;2022-09-17T07:40:42;6.68;;;1.85;;
23716;SDS011;22094;52.130;5.598;2022-09-17T07:43:07;5.65;;;1.60;;
23716;SDS011;22094;52.130;5.598;2022-09-17T07:45:33;5.95;;;1.30;;
23716;SDS011;22094;52.130;5.598;2022-09-17T07:47:59;8.68;;;1.30;;
23716;SDS011;22094;52.130;5.598;2022-09-17T07:50:25;5.63;;;1.40;;
23716;SDS011;22094;52.130;5.598;2022-09-17T07:52:50;5.90;;;1.25;;
23716;SDS011;22094;52.130;5.598;2022-09-17T07:55:16;8.02;;;1.40;;
23716;SDS011;22094;52.130;5.598;2022-09-17T07:57:42;6.43;;;1.55;;
23716;SDS011;22094;52.130;5.598;2022-09-17T08:00:14;7.50;;;1.33;;
23716;SDS011;22094;52.130;5.598;2022-09-17T08:02:40;6.00;;;1.35;;
23716;SDS011;22094;52.130;5.598;2022-09-17T08:05:06;8.75;;;1.70;;
23716;SDS011;22094;52.130;5.598;2022-09-17T08:07:32;5.03;;;1.27;;
23716;SDS011;22094;52.130;5.598;2022-09-17T08:09:58;7.10;;;1.58;;
23716;SDS011;22094;52.130;5.598;2022-09-17T08:12:24;8.45;;;1.77;;
23716;SDS011;22094;52.130;5.598;2022-09-17T08:14:49;5.05;;;1.80;;
23716;SDS011;22094;52.130;5.598;2022-09-17T08:17:15;6.55;;;1.70;;
23716;SDS011;22094;52.130;5.598;2022-09-17T08:19:41;6.50;;;1.65;;
23716;SDS011;22094;52.130;5.598;2022-09-17T08:22:07;6.78;;;1.35;;
23716;SDS011;22094;52.130;5.598;2022-09-17T08:24:32;5.68;;;1.60;;
23716;SDS011;22094;52.130;5.598;2022-09-17T08:26:58;5.05;;;1.08;;
23716;SDS011;22094;52.130;5.598;2022-09-17T08:29:23;4.07;;;1.13;;
23716;SDS011;22094;52.130;5.598;2022-09-17T08:31:49;2.72;;;1.00;;
23716;SDS011;22094;52.130;5.598;2022-09-17T08:34:15;3.72;;;1.08;;
23716;SDS011;22094;52.130;5.598;2022-09-17T08:36:40;3.33;;;1.25;;
23716;SDS011;22094;52.130;5.598;2022-09-17T08:39:06;4.90;;;0.90;;
23716;SDS011;22094;52.130;5.598;2022-09-17T08:41:44;2.80;;;0.90;;
23716;SDS011;22094;52.130;5.598;2022-09-17T08:44:21;6.35;;;1.60;;
23716;SDS011;22094;52.130;5.598;2022-09-17T08:49:55;4.13;;;1.08;;
23716;SDS011;22094;52.130;5.598;2022-09-17T08:55:21;2.75;;;1.17;;
23716;SDS011;22094;52.130;5.598;2022-09-17T08:58:11;2.95;;;1.30;;
23716;SDS011;22094;52.130;5.598;2022-09-17T09:06:09;4.35;;;1.23;;
23716;SDS011;22094;52.130;5.598;2022-09-17T09:08:43;6.05;;;1.90;;
23716;SDS011;22094;52.130;5.598;2022-09-17T09:11:16;3.13;;;1.05;;
23716;SDS011;22094;52.130;5.598;2022-09-17T09:13:48;5.90;;;1.50;;
23716;SDS011;22094;52.130;5.598;2022-09-17T09:16:17;4.38;;;1.13;;
23716;SDS011;22094;52.130;5.598;2022-09-17T09:18:47;4.20;;;1.10;;
23716;SDS011;22094;52.130;5.598;2022-09-17T09:23:50;5.18;;;1.25;;
23716;SDS011;22094;52.130;5.598;2022-09-17T09:26:27;3.22;;;1.25;;
23716;SDS011;22094;52.130;5.598;2022-09-17T09:32:20;2.63;;;1.20;;
23716;SDS011;22094;52.130;5.598;2022-09-17T09:34:49;4.18;;;1.27;;
23716;SDS011;22094;52.130;5.598;2022-09-17T09:37:23;5.15;;;1.83;;
23716;SDS011;22094;52.130;5.598;2022-09-17T09:39:53;8.13;;;1.73;;
23716;SDS011;22094;52.130;5.598;2022-09-17T09:42:26;4.05;;;1.65;;
23716;SDS011;22094;52.130;5.598;2022-09-17T09:44:58;2.67;;;1.45;;
23716;SDS011;22094;52.130;5.598;2022-09-17T09:50:42;5.13;;;1.55;;
23716;SDS011;22094;52.130;5.598;2022-09-17T09:53:31;4.30;;;1.40;;
23716;SDS011;22094;52.130;5.598;2022-09-17T09:56:14;5.70;;;1.58;;
23716;SDS011;22094;52.130;5.598;2022-09-17T09:58:49;5.03;;;1.52;;
23716;SDS011;22094;52.130;5.598;2022-09-17T10:01:15;4.68;;;1.52;;
23716;SDS011;22094;52.130;5.598;2022-09-17T10:03:46;3.78;;;1.48;;
23716;SDS011;22094;52.130;5.598;2022-09-17T10:06:13;2.70;;;1.15;;
23716;SDS011;22094;52.130;5.598;2022-09-17T10:08:40;6.22;;;1.80;;
23716;SDS011;22094;52.130;5.598;2022-09-17T10:11:27;8.77;;;1.00;;
23716;SDS011;22094;52.130;5.598;2022-09-17T10:16:44;2.20;;;0.90;;
23716;SDS011;22094;52.130;5.598;2022-09-17T10:19:12;5.40;;;1.30;;
23716;SDS011;22094;52.130;5.598;2022-09-17T10:21:43;3.65;;;1.20;;
23716;SDS011;22094;52.130;5.598;2022-09-17T10:26:47;3.78;;;1.20;;
23716;SDS011;22094;52.130;5.598;2022-09-17T10:29:13;5.90;;;2.08;;
23716;SDS011;22094;52.130;5.598;2022-09-17T10:31:49;4.35;;;1.40;;
23716;SDS011;22094;52.130;5.598;2022-09-17T10:36:48;4.70;;;1.80;;
23716;SDS011;22094;52.130;5.598;2022-09-17T10:42:00;5.47;;;1.60;;
23716;SDS011;22094;52.130;5.598;2022-09-17T10:44:35;5.63;;;2.15;;
23716;SDS011;22094;52.130;5.598;2022-09-17T11:05:56;7.57;;;1.90;;
23716;SDS011;22094;52.130;5.598;2022-09-17T11:08:38;8.05;;;1.90;;
23716;SDS011;22094;52.130;5.598;2022-09-17T11:11:22;4.07;;;1.80;;
23716;SDS011;22094;52.130;5.598;2022-09-17T11:14:14;5.90;;;2.20;;
23716;SDS011;22094;52.130;5.598;2022-09-17T11:16:54;3.90;;;1.73;;
23716;SDS011;22094;52.130;5.598;2022-09-17T11:19:37;4.85;;;1.75;;
23716;SDS011;22094;52.130;5.598;2022-09-17T11:25:06;8.43;;;2.13;;
23716;SDS011;22094;52.130;5.598;2022-09-17T11:30:20;7.88;;;2.30;;
23716;SDS011;22094;52.130;5.598;2022-09-17T11:35:36;6.22;;;2.03;;
23716;SDS011;22094;52.130;5.598;2022-09-17T11:38:38;8.48;;;2.25;;
23716;SDS011;22094;52.130;5.598;2022-09-17T11:41:21;10.27;;;2.40;;
23716;SDS011;22094;52.130;5.598;2022-09-17T11:46:47;8.10;;;2.28;;
23716;SDS011;22094;52.130;5.598;2022-09-17T11:52:42;5.78;;;2.20;;
23716;SDS011;22094;52.130;5.598;2022-09-17T11:57:37;6.55;;;1.98;;
23716;SDS011;22094;52.130;5.598;2022-09-17T12:00:05;6.53;;;2.25;;
23716;SDS011;22094;52.130;5.598;2022-09-17T12:05:21;3.30;;;1.70;;
23716;SDS011;22094;52.130;5.598;2022-09-17T12:10:47;3.83;;;1.70;;
23716;SDS011;22094;52.130;5.598;2022-09-17T12:15:44;6.00;;;1.88;;
23716;SDS011;22094;52.130;5.598;2022-09-17T12:18:18;6.85;;;2.13;;
23716;SDS011;22094;52.130;5.598;2022-09-17T12:20:46;6.25;;;2.00;;
23716;SDS011;22094;52.130;5.598;2022-09-17T12:23:13;5.85;;;1.95;;
23716;SDS011;22094;52.130;5.598;2022-09-17T12:25:44;6.47;;;1.40;;
23716;SDS011;22094;52.130;5.598;2022-09-17T12:28:20;4.88;;;0.90;;
23716;SDS011;22094;52.130;5.598;2022-09-17T12:30:58;6.82;;;1.38;;
23716;SDS011;22094;52.130;5.598;2022-09-17T12:33:33;7.78;;;1.75;;
23716;SDS011;22094;52.130;5.598;2022-09-17T12:36:18;7.72;;;1.48;;
23716;SDS011;22094;52.130;5.598;2022-09-17T12:41:19;6.13;;;2.10;;
23716;SDS011;22094;52.130;5.598;2022-09-17T12:49:21;7.32;;;1.95;;
23716;SDS011;22094;52.130;5.598;2022-09-17T12:51:56;11.10;;;2.83;;
23716;SDS011;22094;52.130;5.598;2022-09-17T13:00:03;8.50;;;1.40;;
23716;SDS011;22094;52.130;5.598;2022-09-17T13:02:31;5.00;;;1.10;;
23716;SDS011;22094;52.130;5.598;2022-09-17T13:10:27;7.10;;;1.50;;
23716;SDS011;22094;52.130;5.598;2022-09-17T13:13:04;8.43;;;1.70;;
23716;SDS011;22094;52.130;5.598;2022-09-17T13:18:38;9.80;;;1.83;;
23716;SDS011;22094;52.130;5.598;2022-09-17T13:21:14;10.15;;;2.03;;
23716;SDS011;22094;52.130;5.598;2022-09-17T13:23:48;10.10;;;2.35;;
23716;SDS011;22094;52.130;5.598;2022-09-17T13:26:19;6.60;;;2.10;;
23716;SDS011;22094;52.130;5.598;2022-09-17T13:28:57;3.70;;;1.95;;
23716;SDS011;22094;52.130;5.598;2022-09-17T13:36:49;7.55;;;2.05;;
23716;SDS011;22094;52.130;5.598;2022-09-17T13:39:35;10.52;;;2.42;;
23716;SDS011;22094;52.130;5.598;2022-09-17T13:42:07;8.15;;;2.38;;
23716;SDS011;22094;52.130;5.598;2022-09-17T13:44:35;8.20;;;2.40;;
23716;SDS011;22094;52.130;5.598;2022-09-17T13:47:10;9.27;;;1.83;;
23716;SDS011;22094;52.130;5.598;2022-09-17T13:49:44;10.20;;;1.65;;
23716;SDS011;22094;52.130;5.598;2022-09-17T13:55:29;9.30;;;1.60;;
23716;SDS011;22094;52.130;5.598;2022-09-17T13:58:12;10.07;;;1.90;;
23716;SDS011;22094;52.130;5.598;2022-09-17T14:00:53;6.75;;;1.20;;
23716;SDS011;22094;52.130;5.598;2022-09-17T14:05:55;6.88;;;1.58;;
23716;SDS011;22094;52.130;5.598;2022-09-17T14:08:26;5.57;;;1.40;;
23716;SDS011;22094;52.130;5.598;2022-09-17T14:10:54;6.38;;;1.75;;
23716;SDS011;22094;52.130;5.598;2022-09-17T14:13:40;6.28;;;2.35;;
23716;SDS011;22094;52.130;5.598;2022-09-17T14:16:22;8.73;;;1.85;;
23716;SDS011;22094;52.130;5.598;2022-09-17T14:18:59;6.25;;;1.75;;
23716;SDS011;22094;52.130;5.598;2022-09-17T14:21:26;4.47;;;1.50;;
23716;SDS011;22094;52.130;5.598;2022-09-17T14:23:55;4.22;;;1.40;;
23716;SDS011;22094;52.130;5.598;2022-09-17T14:27:05;7.78;;;1.48;;
23716;SDS011;22094;52.130;5.598;2022-09-17T14:32:09;4.82;;;1.67;;
23716;SDS011;22094;52.130;5.598;2022-09-17T14:34:44;4.75;;;1.52;;
23716;SDS011;22094;52.130;5.598;2022-09-17T14:37:12;4.60;;;1.65;;
23716;SDS011;22094;52.130;5.598;2022-09-17T14:39:39;5.95;;;1.58;;
23716;SDS011;22094;52.130;5.598;2022-09-17T14:42:08;4.18;;;1.77;;
23716;SDS011;22094;52.130;5.598;2022-09-17T14:44:43;5.28;;;1.70;;
23716;SDS011;22094;52.130;5.598;2022-09-17T14:47:13;6.40;;;1.70;;
23716;SDS011;22094;52.130;5.598;2022-09-17T14:49:42;6.07;;;2.00;;
23716;SDS011;22094;52.130;5.598;2022-09-17T14:52:23;7.95;;;1.83;;
23716;SDS011;22094;52.130;5.598;2022-09-17T14:55:07;5.85;;;2.00;;
23716;SDS011;22094;52.130;5.598;2022-09-17T14:57:33;8.52;;;2.03;;
23716;SDS011;22094;52.130;5.598;2022-09-17T15:00:00;5.63;;;1.65;;
23716;SDS011;22094;52.130;5.598;2022-09-17T15:02:36;6.25;;;1.42;;
23716;SDS011;22094;52.130;5.598;2022-09-17T15:08:06;5.50;;;1.95;;
23716;SDS011;22094;52.130;5.598;2022-09-17T15:10:33;7.43;;;2.03;;
23716;SDS011;22094;52.130;5.598;2022-09-17T15:13:11;7.25;;;1.90;;
23716;SDS011;22094;52.130;5.598;2022-09-17T15:15:39;6.05;;;1.67;;
23716;SDS011;22094;52.130;5.598;2022-09-17T15:18:04;6.28;;;1.77;;
23716;SDS011;22094;52.130;5.598;2022-09-17T15:20:30;6.18;;;1.58;;
23716;SDS011;22094;52.130;5.598;2022-09-17T15:23:06;8.40;;;1.60;;
23716;SDS011;22094;52.130;5.598;2022-09-17T15:25:41;9.52;;;1.75;;
23716;SDS011;22094;52.130;5.598;2022-09-17T15:28:25;9.95;;;1.50;;
23716;SDS011;22094;52.130;5.598;2022-09-17T15:30:55;9.68;;;1.80;;
23716;SDS011;22094;52.130;5.598;2022-09-17T15:33:21;13.98;;;2.20;;
23716;SDS011;22094;52.130;5.598;2022-09-17T15:38:39;16.65;;;2.78;;
23716;SDS011;22094;52.130;5.598;2022-09-17T15:43:51;10.85;;;2.33;;
23716;SDS011;22094;52.130;5.598;2022-09-17T15:46:24;11.02;;;2.38;;
23716;SDS011;22094;52.130;5.598;2022-09-17T15:48:52;6.60;;;2.00;;
23716;SDS011;22094;52.130;5.598;2022-09-17T15:53:59;10.60;;;2.35;;
23716;SDS011;22094;52.130;5.598;2022-09-17T15:59:03;9.80;;;1.88;;
23716;SDS011;22094;52.130;5.598;2022-09-17T16:06:34;7.70;;;1.65;;
23716;SDS011;22094;52.130;5.598;2022-09-17T16:09:00;7.70;;;1.70;;
23716;SDS011;22094;52.130;5.598;2022-09-17T16:11:28;9.45;;;1.90;;
23716;SDS011;22094;52.130;5.598;2022-09-17T16:13:55;8.13;;;1.55;;
23716;SDS011;22094;52.130;5.598;2022-09-17T16:16:26;7.82;;;2.22;;
23716;SDS011;22094;52.130;5.598;2022-09-17T16:18:56;9.15;;;2.10;;
23716;SDS011;22094;52.130;5.598;2022-09-17T16:21:21;7.97;;;1.75;;
23716;SDS011;22094;52.130;5.598;2022-09-17T16:23:47;10.43;;;2.15;;
23716;SDS011;22094;52.130;5.598;2022-09-17T16:26:14;7.72;;;1.80;;
23716;SDS011;22094;52.130;5.598;2022-09-17T16:28:43;9.25;;;1.88;;
23716;SDS011;22094;52.130;5.598;2022-09-17T16:31:11;6.47;;;1.58;;
23716;SDS011;22094;52.130;5.598;2022-09-17T16:33:38;9.23;;;2.10;;
23716;SDS011;22094;52.130;5.598;2022-09-17T16:36:04;7.28;;;1.83;;
23716;SDS011;22094;52.130;5.598;2022-09-17T16:38:30;12.07;;;2.30;;
23716;SDS011;22094;52.130;5.598;2022-09-17T16:40:55;12.20;;;2.05;;
23716;SDS011;22094;52.130;5.598;2022-09-17T16:43:21;9.85;;;1.85;;
23716;SDS011;22094;52.130;5.598;2022-09-17T16:45:59;8.38;;;2.03;;
23716;SDS011;22094;52.130;5.598;2022-09-17T16:48:29;9.02;;;1.65;;
23716;SDS011;22094;52.130;5.598;2022-09-17T16:50:56;7.70;;;1.98;;
23716;SDS011;22094;52.130;5.598;2022-09-17T16:53:21;10.00;;;2.13;;
23716;SDS011;22094;52.130;5.598;2022-09-17T16:55:47;11.57;;;1.63;;
23716;SDS011;22094;52.130;5.598;2022-09-17T16:58:12;9.18;;;2.15;;
23716;SDS011;22094;52.130;5.598;2022-09-17T17:00:40;12.90;;;2.15;;
23716;SDS011;22094;52.130;5.598;2022-09-17T17:03:08;10.50;;;2.10;;
23716;SDS011;22094;52.130;5.598;2022-09-17T17:05:36;9.23;;;2.15;;
23716;SDS011;22094;52.130;5.598;2022-09-17T17:08:02;11.82;;;1.70;;
23716;SDS011;22094;52.130;5.598;2022-09-17T17:10:28;12.18;;;1.73;;
23716;SDS011;22094;52.130;5.598;2022-09-17T17:12:54;9.23;;;1.60;;
23716;SDS011;22094;52.130;5.598;2022-09-17T17:15:20;15.25;;;2.38;;
23716;SDS011;22094;52.130;5.598;2022-09-17T17:17:46;11.88;;;2.38;;
23716;SDS011;22094;52.130;5.598;2022-09-17T17:20:12;9.50;;;1.88;;
23716;SDS011;22094;52.130;5.598;2022-09-17T17:22:38;12.20;;;1.85;;
23716;SDS011;22094;52.130;5.598;2022-09-17T17:25:05;9.70;;;1.75;;
23716;SDS011;22094;52.130;5.598;2022-09-17T17:27:32;8.02;;;1.63;;
23716;SDS011;22094;52.130;5.598;2022-09-17T17:29:58;9.73;;;1.48;;
23716;SDS011;22094;52.130;5.598;2022-09-17T17:32:26;7.78;;;1.35;;
23716;SDS011;22094;52.130;5.598;2022-09-17T17:34:51;13.13;;;1.80;;
23716;SDS011;22094;52.130;5.598;2022-09-17T17:37:17;9.13;;;1.63;;
23716;SDS011;22094;52.130;5.598;2022-09-17T17:39:43;8.45;;;1.67;;
23716;SDS011;22094;52.130;5.598;2022-09-17T17:42:08;6.32;;;1.45;;
23716;SDS011;22094;52.130;5.598;2022-09-17T17:44:34;15.70;;;2.33;;
23716;SDS011;22094;52.130;5.598;2022-09-17T17:46:59;9.27;;;1.58;;
23716;SDS011;22094;52.130;5.598;2022-09-17T17:49:25;9.68;;;1.48;;